Terminal Aerodrome Forecast
Issued by NWS

Home | Current Version | Previous Version | Text Only | Print | Product List | Glossary On
Versions: 1 2 3 4 5 6 7 8 9 10 11 12 13 14 15 16 17
000
FTUS46 KMTR 031100
TAFSTS
TAF
KSTS 031131Z 0312/0412 VRB02KT 6SM BR SKC
     FM031800 32003KT P6SM SKC
     FM032200 28008KT P6SM SKC
     FM040400 VRB03KT P6SM SKC=

USA.gov is the U.S. government's official web portal to all federal, state and local government web resources and services.